logo
Search for airport 
image banner adimage banner adimage banner ad
image banner ad

AGTI - Tulaghi

Located in , Solomon Islands

ICAO - AGTI, IATA - TLG

Data provided by Airmate  

General information

Coordinates: S9°6'30" E160°8'54"
Elevation is 3 feet MSL.
 
View others Airports in Central

Operational data

Special qualification required
Current time UTC:
Current local time:
Weather at : AGGH - Honiara International ( 36 km )
METAR: AGGH 152100Z 18004KT 9999 FEW017 FEW018CB 26/24 Q1010 RMK CB TO E/ NNW
View NOTAMs / SUP AIP / TFR affecting this airport [VIEW]
Communications frequencies: [VIEW]

Runways:

Airport contact information

Address: Solomon Islands

Satellite view of AGTI